KTKX

Kennett Memorial Airport

Kennett, Missouri, USA
METAR KTKX 151855Z AUTO 03015KT 6SM -RA FEW060 01/M01 A2991 RMK AO2 P0001
Observed Flight Rules
Feb-15 @ 18:55 UTC (15 minutes ago) Visual Flight Rules
Wind Visibility Clouds Conditions
30° at 15 knots 6 miles
  • Few at 6,000' AGL
  • Light Rain
Temperatures Readings Precipitation
Current 1°C / 34°F
Dewpoint -1°C / 30°F
Humidity 87%
Altimeter 29.91" Hg
Pressure 1012.92 hPa
Elevation 80
Current Rain 0.01
METAR KTKX 151855Z AUTO 03015KT 6SM -RA FEW060 01/M01 A2991 RMK AO2 P0001
Observed Flight Rules
Feb-15 @ 18:55 UTC
(15 minutes ago)
VFR
Wind Visibility
30° at 15 knots 6 miles
Clouds
  • Few at 6,000' AGL
Conditions
  • Light Rain
Temperature Dewpoint
1°C / 34°F -1°C / 30°F
Humidity Altimeter Pressure
87% 29.91" Hg 1012.92 hPa
Current Rain
0.01